Time;durP1;ratioP1;P1;durP2;ratioP2;P2;SDS_P1;SDS_P2;PMS_P1;PMS_P2;Temp;Humidity;BMP_temperature;BMP_pressure;BME280_temperature;BME280_humidity;BME280_pressure;Samples;Min_cycle;Max_cycle;Signal;HPM_P1;HPM_P2
2023/10/14 00:02:03;;;;;;;13.45;7.22;;;;;;;;;;4912645;29;20115;-60
2023/10/14 00:04:30;;;;;;;16.35;7.30;;;;;;;;;;4922086;29;20036;-61
2023/10/14 00:06:57;;;;;;;12.93;6.28;;;;;;;;;;4912808;29;20111;-63
2023/10/14 00:09:24;;;;;;;13.75;7.85;;;;;;;;;;4909145;29;20091;-61
2023/10/14 00:11:55;;;;;;;16.40;6.85;;;;;;;;;;4926030;29;20083;-63
2023/10/14 00:14:23;;;;;;;18.95;7.47;;;;;;;;;;4932579;29;20061;-61
2023/10/14 00:16:52;;;;;;;15.85;7.85;;;;;;;;;;4931946;29;20032;-62
2023/10/14 00:19:19;;;;;;;18.45;7.40;;;;;;;;;;4932095;29;20043;-61
2023/10/14 00:21:46;;;;;;;15.50;8.40;;;;;;;;;;4933980;29;20031;-61
2023/10/14 00:24:25;;;;;;;18.67;7.88;;;;;;;;;;4934910;29;20050;-59
2023/10/14 00:26:52;;;;;;;21.38;9.07;;;;;;;;;;4935134;29;20161;-60
2023/10/14 00:29:19;;;;;;;21.45;8.07;;;;;;;;;;4934538;29;20520;-60
2023/10/14 00:31:52;;;;;;;20.10;9.43;;;;;;;;;;4938629;29;20047;-60
2023/10/14 00:34:25;;;;;;;15.45;8.02;;;;;;;;;;4935590;29;20038;-59
2023/10/14 00:36:53;;;;;;;13.73;7.07;;;;;;;;;;4935218;29;20028;-62
2023/10/14 00:39:28;;;;;;;15.65;8.15;;;;;;;;;;4931962;29;20043;-60
2023/10/14 00:41:55;;;;;;;13.70;6.90;;;;;;;;;;4933504;29;20028;-62
2023/10/14 00:44:24;;;;;;;14.98;7.03;;;;;;;;;;4920418;29;20126;-60
2023/10/14 00:46:50;;;;;;;19.63;9.07;;;;;;;;;;4936264;29;20039;-61
2023/10/14 00:49:28;;;;;;;19.67;8.57;;;;;;;;;;4932638;29;20388;-60
2023/10/14 00:51:58;;;;;;;13.88;7.82;;;;;;;;;;4935791;29;20096;-62
2023/10/14 00:54:40;;;;;;;;;;;;;;;;;;4934858;29;20035;-60
2023/10/14 00:59:45;;;;;;;14.27;7.38;;;;;;;;;;4935314;29;20036;-61
2023/10/14 01:02:10;;;;;;;14.35;6.50;;;;;;;;;;4934844;29;20285;-63
2023/10/14 01:04:37;;;;;;;16.05;7.28;;;;;;;;;;4934317;29;20476;-60
2023/10/14 01:07:15;;;;;;;11.00;4.60;;;;;;;;;;4929361;29;20028;-60
2023/10/14 01:12:20;;;;;;;3.67;1.70;;;;;;;;;;4928541;29;20657;-61
2023/10/14 01:14:52;;;;;;;3.90;1.30;;;;;;;;;;4934882;29;20472;-60
2023/10/14 01:17:26;;;;;;;5.63;1.40;;;;;;;;;;4933322;29;20087;-61
2023/10/14 01:19:53;;;;;;;3.78;1.30;;;;;;;;;;4934765;29;20035;-61
2023/10/14 01:22:19;;;;;;;3.95;1.60;;;;;;;;;;4933566;29;20028;-61
2023/10/14 01:24:44;;;;;;;2.90;1.40;;;;;;;;;;4915537;29;20028;-60
2023/10/14 01:27:11;;;;;;;2.05;1.00;;;;;;;;;;4936846;29;20486;-59
2023/10/14 01:29:41;;;;;;;1.85;0.88;;;;;;;;;;4948242;29;20027;-60
2023/10/14 01:32:24;;;;;;;1.40;0.80;;;;;;;;;;4901592;29;20061;-60
2023/10/14 01:34:55;;;;;;;1.30;1.00;;;;;;;;;;4924896;29;20274;-62
2023/10/14 01:37:20;;;;;;;;;;;;;;;;;;4933911;29;20098;-60
2023/10/14 01:39:48;;;;;;;3.22;1.08;;;;;;;;;;4933461;29;19974;-62
2023/10/14 01:42:16;;;;;;;1.80;1.17;;;;;;;;;;4933523;29;20058;-60
2023/10/14 01:44:41;;;;;;;1.30;1.00;;;;;;;;;;4932925;29;20441;-60
2023/10/14 01:47:07;;;;;;;2.05;1.10;;;;;;;;;;4913944;29;20055;-61
2023/10/14 01:49:35;;;;;;;2.58;1.15;;;;;;;;;;4917446;29;20043;-60
2023/10/14 01:52:02;;;;;;;1.48;1.00;;;;;;;;;;4933165;29;20038;-61
2023/10/14 01:54:28;;;;;;;2.03;1.05;;;;;;;;;;4932028;29;20043;-61
2023/10/14 01:56:54;;;;;;;1.40;0.98;;;;;;;;;;4938525;29;20107;-61
2023/10/14 01:59:23;;;;;;;1.42;1.00;;;;;;;;;;4934089;29;20032;-61
2023/10/14 02:01:49;;;;;;;2.00;0.90;;;;;;;;;;4932842;29;20040;-61
2023/10/14 02:04:15;;;;;;;1.42;0.80;;;;;;;;;;4925785;29;20297;-60
2023/10/14 02:06:46;;;;;;;2.25;0.90;;;;;;;;;;4920811;29;20482;-60
2023/10/14 02:09:17;;;;;;;2.83;0.80;;;;;;;;;;4940801;29;20056;-60
2023/10/14 02:11:42;;;;;;;1.42;1.05;;;;;;;;;;4945632;29;20058;-61
2023/10/14 02:14:08;;;;;;;2.40;0.93;;;;;;;;;;4936306;29;20400;-62
2023/10/14 02:16:42;;;;;;;1.50;0.90;;;;;;;;;;4954086;29;20034;-62
2023/10/14 02:19:18;;;;;;;4.50;1.20;;;;;;;;;;4945436;29;20096;-62
2023/10/14 02:21:44;;;;;;;3.92;1.05;;;;;;;;;;4934661;29;20055;-60
2023/10/14 02:24:10;;;;;;;2.15;0.95;;;;;;;;;;4917365;29;20393;-60
2023/10/14 02:26:38;;;;;;;1.13;0.85;;;;;;;;;;4951953;29;20027;-60
2023/10/14 02:29:07;;;;;;;2.80;1.00;;;;;;;;;;4942997;29;20103;-61
2023/10/14 02:31:35;;;;;;;3.53;1.17;;;;;;;;;;4935994;29;20031;-60
2023/10/14 02:34:06;;;;;;;2.42;1.10;;;;;;;;;;4934203;29;20032;-61
2023/10/14 02:36:35;;;;;;;;;;;;;;;;;;4935083;29;20431;-61
2023/10/14 02:39:14;;;;;;;2.90;1.20;;;;;;;;;;4934370;29;19918;-61
2023/10/14 02:41:43;;;;;;;2.60;1.13;;;;;;;;;;4934172;29;20400;-60
2023/10/14 02:46:42;;;;;;;3.50;1.52;;;;;;;;;;4934732;29;20095;-60
2023/10/14 02:49:09;;;;;;;2.78;1.42;;;;;;;;;;4933678;29;20144;-60
2023/10/14 02:54:04;;;;;;;4.88;1.90;;;;;;;;;;4933940;29;20127;-63
2023/10/14 02:57:23;;;;;;;4.45;1.50;;;;;;;;;;4943204;29;20028;-61
2023/10/14 02:59:20;;;;;;;2.25;1.23;;;;;;;;;;4922541;29;20040;-61
2023/10/14 03:02:09;;;;;;;3.83;1.30;;;;;;;;;;4934231;29;20425;-61
2023/10/14 03:04:48;;;;;;;5.03;1.55;;;;;;;;;;4935443;29;20020;-61
2023/10/14 03:07:28;;;;;;;4.10;1.70;;;;;;;;;;4931306;29;20492;-61
2023/10/14 03:09:58;;;;;;;6.07;1.40;;;;;;;;;;4934290;29;20037;-61
2023/10/14 03:12:27;;;;;;;5.40;1.40;;;;;;;;;;4933452;29;20430;-61
2023/10/14 03:14:53;;;;;;;7.70;1.92;;;;;;;;;;4933699;29;20031;-61
2023/10/14 03:17:38;;;;;;;4.82;1.48;;;;;;;;;;4916181;29;20110;-61
2023/10/14 03:20:12;;;;;;;10.50;1.58;;;;;;;;;;4933545;29;20024;-61
2023/10/14 03:22:47;;;;;;;7.43;1.88;;;;;;;;;;4934244;29;20035;-61
2023/10/14 03:25:15;;;;;;;4.63;1.52;;;;;;;;;;4933247;29;20080;-61
2023/10/14 03:27:41;;;;;;;5.82;2.00;;;;;;;;;;4953779;29;20039;-61
2023/10/14 03:30:10;;;;;;;4.70;1.55;;;;;;;;;;4952573;29;20467;-61
2023/10/14 03:32:36;;;;;;;4.13;1.67;;;;;;;;;;4934833;29;20449;-60
2023/10/14 03:35:10;;;;;;;6.65;1.80;;;;;;;;;;4933678;29;20477;-62
2023/10/14 03:37:40;;;;;;;5.55;1.67;;;;;;;;;;4933923;29;20088;-61
2023/10/14 03:40:52;;;;;;;3.00;1.43;;;;;;;;;;4932234;29;20054;-61
2023/10/14 03:43:14;;;;;;;8.98;2.00;;;;;;;;;;4921284;29;20270;-61
2023/10/14 03:45:56;;;;;;;6.57;1.92;;;;;;;;;;4933471;29;21222;-61
2023/10/14 03:48:27;;;;;;;5.32;1.85;;;;;;;;;;4932723;29;20027;-61
2023/10/14 03:50:54;;;;;;;8.38;1.88;;;;;;;;;;4952873;29;20436;-61
2023/10/14 03:53:19;;;;;;;9.30;1.92;;;;;;;;;;4950088;29;20098;-60
2023/10/14 03:55:45;;;;;;;8.95;2.28;;;;;;;;;;4946289;29;20039;-61
2023/10/14 03:58:12;;;;;;;10.65;2.10;;;;;;;;;;4936933;29;20028;-61
2023/10/14 04:00:37;;;;;;;12.75;2.60;;;;;;;;;;4937397;29;20028;-61
2023/10/14 04:03:11;;;;;;;8.90;2.00;;;;;;;;;;4937325;29;20034;-62
2023/10/14 04:05:44;;;;;;;13.60;2.55;;;;;;;;;;4936622;29;20438;-61
2023/10/14 04:08:12;;;;;;;8.20;1.90;;;;;;;;;;4936826;29;20500;-61
2023/10/14 04:10:46;;;;;;;7.45;2.03;;;;;;;;;;4937466;29;20119;-61
2023/10/14 04:13:21;;;;;;;8.68;1.70;;;;;;;;;;4919791;29;20047;-61
2023/10/14 04:15:52;;;;;;;10.10;2.17;;;;;;;;;;4938010;29;20034;-61
2023/10/14 04:18:24;;;;;;;8.63;2.30;;;;;;;;;;4938241;29;20473;-61
2023/10/14 04:21:06;;;;;;;13.93;2.08;;;;;;;;;;4937280;29;20031;-62
2023/10/14 04:23:42;;;;;;;12.38;2.00;;;;;;;;;;4937001;29;20040;-61
2023/10/14 04:26:11;;;;;;;8.38;1.90;;;;;;;;;;4935735;29;20485;-61
2023/10/14 04:28:53;;;;;;;11.57;2.08;;;;;;;;;;4921108;29;20126;-61
2023/10/14 04:31:19;;;;;;;8.18;1.73;;;;;;;;;;4936333;29;20090;-61
2023/10/14 04:33:44;;;;;;;9.48;2.75;;;;;;;;;;4937260;29;20080;-61
2023/10/14 04:36:56;;;;;;;9.45;1.83;;;;;;;;;;4936022;29;20039;-61
2023/10/14 04:39:13;;;;;;;7.70;2.00;;;;;;;;;;4920578;29;20079;-61
2023/10/14 04:41:48;;;;;;;9.63;2.67;;;;;;;;;;4933903;29;20393;-61
2023/10/14 04:44:13;;;;;;;6.63;1.90;;;;;;;;;;4936286;29;20036;-61
2023/10/14 04:47:01;;;;;;;7.55;2.13;;;;;;;;;;4930004;29;20042;-61
2023/10/14 04:49:35;;;;;;;9.50;1.80;;;;;;;;;;4955364;29;20039;-61
2023/10/14 04:52:04;;;;;;;10.20;2.00;;;;;;;;;;4956083;29;20042;-62
2023/10/14 04:54:34;;;;;;;6.35;2.00;;;;;;;;;;4955560;29;20515;-61
2023/10/14 04:56:59;;;;;;;8.50;2.08;;;;;;;;;;4941317;29;20108;-61
2023/10/14 04:59:27;;;;;;;12.77;2.10;;;;;;;;;;4936280;29;20668;-61
2023/10/14 05:01:55;;;;;;;11.63;2.83;;;;;;;;;;4936630;29;20472;-60
2023/10/14 05:04:22;;;;;;;8.02;2.08;;;;;;;;;;4935881;29;20039;-61
2023/10/14 05:06:52;;;;;;;9.07;1.95;;;;;;;;;;4936265;29;20032;-60
2023/10/14 05:09:30;;;;;;;8.52;2.38;;;;;;;;;;4935914;29;20122;-60
2023/10/14 05:11:57;;;;;;;10.98;1.92;;;;;;;;;;4936419;29;20055;-60
2023/10/14 05:14:36;;;;;;;11.02;2.08;;;;;;;;;;4936260;29;20032;-60
2023/10/14 05:19:43;;;;;;;9.23;1.90;;;;;;;;;;4936311;29;20473;-60
2023/10/14 05:24:52;;;;;;;5.65;1.80;;;;;;;;;;4936415;29;20473;-60
2023/10/14 05:27:19;;;;;;;8.35;1.92;;;;;;;;;;4934871;29;20042;-60
2023/10/14 05:29:51;;;;;;;9.55;2.03;;;;;;;;;;4936024;29;20092;-60
2023/10/14 05:32:24;;;;;;;10.23;2.25;;;;;;;;;;4943895;29;20448;-60
2023/10/14 05:34:51;;;;;;;9.93;1.92;;;;;;;;;;4938287;29;20035;-60
2023/10/14 05:37:16;;;;;;;10.77;2.08;;;;;;;;;;4938992;29;20070;-60
2023/10/14 05:39:42;;;;;;;5.68;1.67;;;;;;;;;;4935707;29;20063;-60
2023/10/14 05:42:21;;;;;;;12.23;2.20;;;;;;;;;;4941192;29;20488;-61
2023/10/14 05:44:49;;;;;;;13.07;2.42;;;;;;;;;;4935718;29;20334;-60
2023/10/14 05:47:17;;;;;;;9.85;2.83;;;;;;;;;;4934927;29;20027;-61
2023/10/14 05:49:43;;;;;;;13.93;2.17;;;;;;;;;;4935909;29;20038;-60
2023/10/14 05:52:11;;;;;;;9.05;2.05;;;;;;;;;;4917846;29;20050;-62
2023/10/14 05:54:41;;;;;;;8.20;2.13;;;;;;;;;;4935622;29;20461;-60
2023/10/14 05:57:10;;;;;;;7.40;2.20;;;;;;;;;;4935685;29;20035;-60
2023/10/14 05:59:43;;;;;;;10.13;2.00;;;;;;;;;;4918124;29;20378;-60
2023/10/14 06:02:12;;;;;;;10.35;2.05;;;;;;;;;;4935549;29;20445;-63
2023/10/14 06:04:42;;;;;;;11.00;1.88;;;;;;;;;;4936750;29;20035;-61
2023/10/14 06:07:12;;;;;;;8.18;2.00;;;;;;;;;;4935240;29;20035;-61
2023/10/14 06:09:38;;;;;;;13.23;2.20;;;;;;;;;;4918516;29;20032;-60
2023/10/14 06:12:12;;;;;;;10.48;2.20;;;;;;;;;;4935035;29;20055;-59
2023/10/14 06:14:38;;;;;;;7.43;2.00;;;;;;;;;;4935737;29;20083;-60
2023/10/14 06:17:04;;;;;;;9.50;1.80;;;;;;;;;;4918412;29;20083;-60
2023/10/14 06:19:30;;;;;;;7.90;2.13;;;;;;;;;;4934154;29;20164;-59
2023/10/14 06:21:59;;;;;;;11.30;2.20;;;;;;;;;;4934139;29;20396;-60
2023/10/14 06:24:24;;;;;;;11.07;2.10;;;;;;;;;;4934346;29;20035;-59
2023/10/14 06:26:58;;;;;;;6.47;1.83;;;;;;;;;;4934547;29;20039;-61
2023/10/14 06:29:27;;;;;;;11.68;2.25;;;;;;;;;;4934359;29;20050;-60
2023/10/14 06:31:52;;;;;;;6.80;1.77;;;;;;;;;;4948754;29;20097;-62
2023/10/14 06:34:20;;;;;;;11.27;1.75;;;;;;;;;;4944844;29;20055;-60
2023/10/14 06:36:47;;;;;;;12.00;2.10;;;;;;;;;;4935070;29;20028;-61
2023/10/14 06:39:14;;;;;;;8.13;2.28;;;;;;;;;;4933907;29;20035;-62
2023/10/14 06:41:43;;;;;;;8.65;2.00;;;;;;;;;;4925784;29;20441;-61
2023/10/14 06:44:15;;;;;;;9.63;2.10;;;;;;;;;;4947294;29;20370;-61
2023/10/14 06:46:44;;;;;;;7.60;1.92;;;;;;;;;;4917850;29;20408;-62
2023/10/14 06:49:13;;;;;;;9.90;2.00;;;;;;;;;;4934602;29;20384;-61
2023/10/14 06:51:42;;;;;;;7.20;1.90;;;;;;;;;;4934596;29;20111;-60
2023/10/14 06:54:09;;;;;;;9.73;1.70;;;;;;;;;;4935419;29;20032;-60
2023/10/14 06:56:40;;;;;;;14.80;2.55;;;;;;;;;;4924425;29;20051;-60
2023/10/14 06:59:06;;;;;;;10.73;2.35;;;;;;;;;;4934856;29;20035;-61
2023/10/14 07:01:33;;;;;;;8.27;2.22;;;;;;;;;;4934045;29;20135;-61
2023/10/14 07:03:59;;;;;;;11.25;2.00;;;;;;;;;;4934335;29;20027;-62
2023/10/14 07:06:26;;;;;;;7.68;1.80;;;;;;;;;;4933973;29;20461;-61
2023/10/14 07:08:52;;;;;;;10.02;2.42;;;;;;;;;;4935275;29;20382;-61
2023/10/14 07:11:17;;;;;;;9.57;2.38;;;;;;;;;;4933527;29;20062;-61
2023/10/14 07:13:42;;;;;;;5.03;1.75;;;;;;;;;;4917119;29;20136;-61
2023/10/14 07:16:08;;;;;;;13.23;2.10;;;;;;;;;;4934961;29;20066;-61
2023/10/14 07:18:37;;;;;;;9.45;2.22;;;;;;;;;;4943468;29;20300;-61
2023/10/14 07:21:03;;;;;;;11.70;2.05;;;;;;;;;;4953504;29;20027;-61
2023/10/14 07:23:34;;;;;;;10.07;1.92;;;;;;;;;;4952814;29;20063;-61
2023/10/14 07:26:06;;;;;;;;;;;;;;;;;;4945836;29;20130;-61
2023/10/14 07:28:32;;;;;;;10.70;1.92;;;;;;;;;;4938475;29;19921;-61
2023/10/14 07:30:57;;;;;;;13.85;2.20;;;;;;;;;;4922398;29;20028;-61
2023/10/14 07:33:24;;;;;;;8.10;1.75;;;;;;;;;;4930733;29;20123;-61
2023/10/14 07:35:50;;;;;;;10.52;1.90;;;;;;;;;;4957486;29;20477;-61
2023/10/14 07:38:15;;;;;;;13.30;3.53;;;;;;;;;;4957229;29;20066;-63
2023/10/14 07:40:41;;;;;;;15.02;2.08;;;;;;;;;;4932502;29;20056;-61
2023/10/14 07:43:10;;;;;;;12.60;2.00;;;;;;;;;;4944951;29;20059;-60
2023/10/14 07:45:42;;;;;;;14.07;2.35;;;;;;;;;;4956542;29;20232;-61
2023/10/14 07:48:08;;;;;;;13.65;2.28;;;;;;;;;;4940508;29;20035;-63
2023/10/14 07:50:46;;;;;;;12.68;2.05;;;;;;;;;;4938160;29;20036;-61
2023/10/14 07:53:14;;;;;;;9.15;1.95;;;;;;;;;;4936502;29;20046;-60
2023/10/14 07:55:47;;;;;;;9.48;2.28;;;;;;;;;;4942773;29;20539;-61
2023/10/14 07:58:13;;;;;;;8.32;2.70;;;;;;;;;;4955031;29;20365;-60
2023/10/14 08:00:49;;;;;;;10.15;2.20;;;;;;;;;;4956019;29;20787;-60
2023/10/14 08:03:35;;;;;;;15.63;2.45;;;;;;;;;;4948907;29;20071;-62
2023/10/14 08:06:05;;;;;;;8.43;1.63;;;;;;;;;;4937824;29;20127;-59
2023/10/14 08:08:31;;;;;;;8.93;2.38;;;;;;;;;;4936757;29;20597;-61
2023/10/14 08:10:58;;;;;;;9.98;2.08;;;;;;;;;;4937136;29;20106;-61
2023/10/14 08:13:24;;;;;;;11.95;2.08;;;;;;;;;;4938011;29;20124;-61
2023/10/14 08:15:51;;;;;;;15.60;2.80;;;;;;;;;;4934553;29;20477;-59
2023/10/14 08:18:19;;;;;;;7.65;1.83;;;;;;;;;;4936680;29;20032;-63
2023/10/14 08:20:45;;;;;;;10.95;2.85;;;;;;;;;;4920329;29;20028;-59
2023/10/14 08:23:11;;;;;;;10.93;2.42;;;;;;;;;;4937004;29;20050;-59
2023/10/14 08:25:39;;;;;;;15.20;2.08;;;;;;;;;;4936603;29;20623;-56
2023/10/14 08:28:05;;;;;;;10.13;2.22;;;;;;;;;;4936750;29;20036;-60
2023/10/14 08:30:45;;;;;;;11.43;3.05;;;;;;;;;;4918597;29;20040;-59
2023/10/14 08:33:14;;;;;;;6.65;1.83;;;;;;;;;;4909538;29;20477;-60
2023/10/14 08:35:42;;;;;;;15.20;4.10;;;;;;;;;;4913577;29;20526;-60
2023/10/14 08:38:14;;;;;;;11.10;2.40;;;;;;;;;;4936855;29;20063;-60
2023/10/14 08:40:43;;;;;;;6.35;2.00;;;;;;;;;;4917790;29;20251;-60
2023/10/14 08:43:10;;;;;;;9.82;1.92;;;;;;;;;;4935330;29;20083;-59
2023/10/14 08:45:39;;;;;;;10.25;2.08;;;;;;;;;;4932138;29;20035;-60
2023/10/14 08:48:06;;;;;;;6.78;1.70;;;;;;;;;;4937134;29;20043;-60
2023/10/14 08:50:33;;;;;;;8.00;2.20;;;;;;;;;;4934577;29;20043;-59
2023/10/14 08:53:03;;;;;;;7.80;2.30;;;;;;;;;;4928611;29;20118;-59
2023/10/14 08:55:32;;;;;;;8.05;1.77;;;;;;;;;;4947290;29;20035;-61
2023/10/14 08:58:05;;;;;;;9.38;2.42;;;;;;;;;;4938508;29;20405;-61
2023/10/14 09:00:38;;;;;;;11.15;2.60;;;;;;;;;;4936163;29;20185;-61
2023/10/14 09:03:07;;;;;;;8.98;2.08;;;;;;;;;;4934918;29;20043;-60
2023/10/14 09:05:44;;;;;;;8.40;2.25;;;;;;;;;;4935875;29;20114;-60
2023/10/14 09:08:12;;;;;;;11.43;1.92;;;;;;;;;;4919398;29;20039;-60
2023/10/14 09:10:37;;;;;;;10.50;2.40;;;;;;;;;;4935557;29;20480;-60
2023/10/14 09:13:06;;;;;;;11.60;2.50;;;;;;;;;;4936401;29;20044;-60
2023/10/14 09:15:40;;;;;;;11.55;2.05;;;;;;;;;;4921699;29;20123;-60
2023/10/14 09:18:14;;;;;;;9.18;1.83;;;;;;;;;;4916958;29;20477;-61
2023/10/14 09:20:41;;;;;;;12.45;1.90;;;;;;;;;;4935324;29;20552;-60
2023/10/14 09:23:33;;;;;;;11.85;2.10;;;;;;;;;;4919736;29;20039;-60
2023/10/14 09:26:01;;;;;;;10.88;2.08;;;;;;;;;;4917447;29;20040;-60
2023/10/14 09:28:34;;;;;;;7.43;2.05;;;;;;;;;;4919142;29;20183;-61
2023/10/14 09:31:08;;;;;;;9.07;2.13;;;;;;;;;;4936299;29;20035;-61
2023/10/14 09:33:43;;;;;;;7.50;2.10;;;;;;;;;;4935877;29;20035;-61
2023/10/14 09:36:20;;;;;;;12.38;2.30;;;;;;;;;;4918997;29;20038;-62
2023/10/14 09:38:51;;;;;;;7.55;2.13;;;;;;;;;;4937703;29;20068;-61
2023/10/14 09:41:17;;;;;;;;;;;;;;;;;;4940652;29;20034;-59
2023/10/14 09:43:43;;;;;;;11.07;1.70;;;;;;;;;;4950110;29;20084;-62
2023/10/14 09:46:16;;;;;;;7.88;1.60;;;;;;;;;;4935920;29;20059;-60
2023/10/14 09:48:44;;;;;;;10.52;1.88;;;;;;;;;;4934407;29;20425;-61
2023/10/14 09:51:12;;;;;;;8.63;1.92;;;;;;;;;;4935825;29;20046;-61
2023/10/14 09:53:38;;;;;;;9.93;2.00;;;;;;;;;;4935376;29;20043;-61
2023/10/14 09:56:08;;;;;;;10.32;2.08;;;;;;;;;;4954343;29;20469;-61
2023/10/14 09:58:36;;;;;;;14.32;2.15;;;;;;;;;;4936645;29;20035;-61
2023/10/14 10:01:05;;;;;;;10.25;2.20;;;;;;;;;;4954833;29;20045;-61
2023/10/14 10:03:44;;;;;;;11.38;2.35;;;;;;;;;;4933099;29;20036;-62
2023/10/14 10:06:15;;;;;;;10.63;2.50;;;;;;;;;;4935569;29;20123;-61
2023/10/14 10:08:53;;;;;;;12.32;2.17;;;;;;;;;;4917424;29;20552;-61
2023/10/14 10:11:25;;;;;;;10.10;2.35;;;;;;;;;;4935356;29;20054;-61
2023/10/14 10:13:52;;;;;;;10.77;2.20;;;;;;;;;;4917822;29;20047;-61
2023/10/14 10:16:21;;;;;;;8.13;1.95;;;;;;;;;;4918469;29;20129;-61
2023/10/14 10:18:58;;;;;;;12.05;2.35;;;;;;;;;;4917145;29;20043;-61
2023/10/14 10:21:35;;;;;;;11.73;2.80;;;;;;;;;;4915916;29;20032;-63
2023/10/14 10:24:25;;;;;;;9.20;2.47;;;;;;;;;;4922736;29;20035;-61
2023/10/14 10:27:16;;;;;;;11.20;2.42;;;;;;;;;;4938696;29;20070;-60
2023/10/14 10:29:49;;;;;;;9.75;2.25;;;;;;;;;;4930294;29;20408;-61
2023/10/14 10:32:19;;;;;;;8.50;1.90;;;;;;;;;;4918073;29;20035;-60
2023/10/14 10:35:24;;;;;;;13.18;2.17;;;;;;;;;;4933102;29;20034;-60
2023/10/14 10:37:51;;;;;;;13.73;2.55;;;;;;;;;;4856523;29;20045;-61
2023/10/14 10:40:28;;;;;;;11.13;2.03;;;;;;;;;;4857792;29;20399;-60
2023/10/14 10:43:09;;;;;;;11.23;2.35;;;;;;;;;;4857188;29;20049;-61
2023/10/14 10:45:40;;;;;;;11.10;2.25;;;;;;;;;;4856465;29;20043;-60
2023/10/14 10:48:07;;;;;;;12.75;2.20;;;;;;;;;;4857754;29;20041;-61
2023/10/14 10:50:39;;;;;;;12.23;2.30;;;;;;;;;;4856534;29;20037;-61
2023/10/14 10:53:08;;;;;;;9.00;2.20;;;;;;;;;;4857350;29;20043;-61
2023/10/14 10:55:39;;;;;;;10.55;2.30;;;;;;;;;;4856536;29;20045;-61
2023/10/14 10:58:05;;;;;;;;;;;;;;;;;;4857603;29;20033;-61
2023/10/14 11:00:30;;;;;;;8.23;1.90;;;;;;;;;;4856662;29;19912;-60
2023/10/14 11:03:02;;;;;;;6.80;1.83;;;;;;;;;;4857345;29;20093;-60
2023/10/14 11:05:33;;;;;;;11.73;2.22;;;;;;;;;;4856419;29;20076;-62
2023/10/14 11:08:00;;;;;;;10.15;2.22;;;;;;;;;;4873735;29;20039;-60
2023/10/14 11:10:28;;;;;;;8.77;1.83;;;;;;;;;;4934554;29;20032;-62
2023/10/14 11:12:58;;;;;;;8.48;1.83;;;;;;;;;;4934518;29;20066;-59
2023/10/14 11:15:25;;;;;;;8.45;2.08;;;;;;;;;;4934303;29;20028;-60
2023/10/14 11:17:59;;;;;;;7.00;1.88;;;;;;;;;;4933715;29;20032;-60
2023/10/14 11:20:28;;;;;;;10.45;2.30;;;;;;;;;;4934701;29;20031;-59
2023/10/14 11:22:57;;;;;;;11.25;2.20;;;;;;;;;;4932923;29;20035;-60
2023/10/14 11:25:22;;;;;;;7.72;1.75;;;;;;;;;;4934171;29;20500;-59
2023/10/14 11:27:49;;;;;;;9.63;1.88;;;;;;;;;;4934561;29;20044;-60
2023/10/14 11:30:18;;;;;;;7.57;2.10;;;;;;;;;;4918590;29;20042;-60
2023/10/14 11:32:46;;;;;;;7.93;1.88;;;;;;;;;;4932890;29;20040;-59
2023/10/14 11:35:16;;;;;;;8.52;2.22;;;;;;;;;;4917710;29;20035;-60
2023/10/14 11:37:43;;;;;;;4.90;1.60;;;;;;;;;;4934267;29;20040;-61
2023/10/14 11:40:15;;;;;;;5.43;1.65;;;;;;;;;;4933868;29;20040;-61
2023/10/14 11:42:41;;;;;;;9.23;1.83;;;;;;;;;;4933514;29;20032;-61
2023/10/14 11:45:07;;;;;;;8.57;1.90;;;;;;;;;;4934421;29;20035;-60
2023/10/14 11:47:37;;;;;;;6.60;1.92;;;;;;;;;;4916549;29;20393;-62
2023/10/14 11:50:11;;;;;;;10.25;2.28;;;;;;;;;;4917273;29;20032;-61
2023/10/14 11:52:38;;;;;;;7.68;1.77;;;;;;;;;;4924928;29;20051;-61
2023/10/14 11:55:04;;;;;;;7.90;1.70;;;;;;;;;;4912972;29;20036;-61
2023/10/14 11:57:30;;;;;;;8.25;1.85;;;;;;;;;;4934008;29;20036;-63
2023/10/14 11:59:58;;;;;;;12.20;2.35;;;;;;;;;;4915831;29;20075;-61
2023/10/14 12:02:27;;;;;;;8.07;1.85;;;;;;;;;;4916031;29;20063;-61
2023/10/14 12:04:53;;;;;;;7.55;1.92;;;;;;;;;;4942433;29;20032;-60
2023/10/14 12:07:21;;;;;;;7.80;1.95;;;;;;;;;;4934467;29;20031;-59
2023/10/14 12:09:47;;;;;;;7.65;2.05;;;;;;;;;;4933014;29;20028;-61
2023/10/14 12:12:12;;;;;;;5.15;1.60;;;;;;;;;;4934065;29;20393;-61
2023/10/14 12:14:38;;;;;;;10.90;2.10;;;;;;;;;;4915648;29;20389;-61
2023/10/14 12:17:04;;;;;;;6.82;1.70;;;;;;;;;;4934257;29;20377;-60
2023/10/14 12:19:30;;;;;;;6.68;1.80;;;;;;;;;;4936383;29;20032;-60
2023/10/14 12:21:56;;;;;;;8.77;2.20;;;;;;;;;;4936965;29;20465;-60
2023/10/14 12:24:21;;;;;;;6.32;1.92;;;;;;;;;;4937891;29;20139;-61
2023/10/14 12:26:49;;;;;;;8.75;2.20;;;;;;;;;;4936594;29;20036;-60
2023/10/14 12:29:15;;;;;;;7.05;2.20;;;;;;;;;;4935904;29;20556;-60
2023/10/14 12:31:44;;;;;;;9.00;2.38;;;;;;;;;;4935635;29;20540;-63
2023/10/14 12:34:11;;;;;;;7.25;2.45;;;;;;;;;;4919800;29;20400;-61
2023/10/14 12:36:40;;;;;;;8.38;2.50;;;;;;;;;;4935999;29;20123;-61
2023/10/14 12:39:09;;;;;;;8.63;2.15;;;;;;;;;;4919408;29;20027;-62
2023/10/14 12:41:39;;;;;;;6.53;1.85;;;;;;;;;;4936387;29;20387;-62
2023/10/14 12:44:13;;;;;;;5.17;1.60;;;;;;;;;;4936885;29;20484;-61
2023/10/14 12:46:40;;;;;;;6.85;1.73;;;;;;;;;;4936217;29;20034;-62
2023/10/14 12:49:10;;;;;;;7.43;1.95;;;;;;;;;;4919797;29;20036;-61
2023/10/14 12:51:42;;;;;;;5.15;1.63;;;;;;;;;;4936166;29;20060;-63
2023/10/14 12:54:10;;;;;;;6.80;2.10;;;;;;;;;;4936408;29;20063;-61
2023/10/14 12:56:39;;;;;;;6.20;1.70;;;;;;;;;;4936150;29;20053;-62
2023/10/14 12:59:12;;;;;;;7.22;1.75;;;;;;;;;;4936636;29;20421;-60
2023/10/14 13:01:50;;;;;;;5.80;1.80;;;;;;;;;;4936403;29;20059;-62
2023/10/14 13:04:19;;;;;;;4.88;1.80;;;;;;;;;;4921522;29;20047;-61
2023/10/14 13:06:45;;;;;;;7.03;2.05;;;;;;;;;;4916412;29;20039;-56
2023/10/14 13:09:14;;;;;;;6.55;1.85;;;;;;;;;;4920165;29;20034;-59
2023/10/14 13:11:45;;;;;;;4.97;1.67;;;;;;;;;;4935761;29;20067;-60
2023/10/14 13:14:25;;;;;;;6.95;1.67;;;;;;;;;;4935562;29;20574;-60
2023/10/14 13:16:52;;;;;;;9.32;2.70;;;;;;;;;;4943848;29;20491;-61
2023/10/14 13:19:18;;;;;;;5.95;2.30;;;;;;;;;;4938952;29;20481;-61
2023/10/14 13:21:44;;;;;;;6.60;2.10;;;;;;;;;;4921931;29;20384;-58
2023/10/14 13:24:11;;;;;;;7.43;2.20;;;;;;;;;;4945043;29;20038;-59
2023/10/14 13:26:38;;;;;;;7.80;2.50;;;;;;;;;;4936008;29;20032;-62
2023/10/14 13:29:05;;;;;;;5.90;2.22;;;;;;;;;;4917810;29;20027;-61
2023/10/14 13:31:33;;;;;;;8.77;2.85;;;;;;;;;;4935835;29;20488;-61
2023/10/14 13:33:58;;;;;;;8.38;2.40;;;;;;;;;;4935353;29;20036;-61
2023/10/14 13:36:23;;;;;;;7.22;2.50;;;;;;;;;;4926424;29;20091;-62
2023/10/14 13:38:50;;;;;;;7.00;2.75;;;;;;;;;;4935007;29;20035;-61
2023/10/14 13:41:16;;;;;;;7.38;2.38;;;;;;;;;;4934204;29;20072;-61
2023/10/14 13:43:42;;;;;;;4.50;2.40;;;;;;;;;;4932752;29;20499;-60
2023/10/14 13:46:08;;;;;;;7.78;2.92;;;;;;;;;;4919098;29;20031;-59
2023/10/14 13:48:33;;;;;;;7.78;2.70;;;;;;;;;;4935953;29;20465;-60
2023/10/14 13:51:00;;;;;;;7.18;2.90;;;;;;;;;;4931721;29;20061;-60
2023/10/14 13:53:26;;;;;;;7.68;2.78;;;;;;;;;;4954853;29;20038;-61
2023/10/14 13:55:55;;;;;;;5.38;2.67;;;;;;;;;;4942760;29;20035;-61
2023/10/14 13:58:23;;;;;;;5.90;2.55;;;;;;;;;;4921886;29;20043;-60
2023/10/14 14:00:52;;;;;;;6.78;2.60;;;;;;;;;;4934314;29;20385;-61
2023/10/14 14:03:18;;;;;;;6.18;2.60;;;;;;;;;;4935325;29;20041;-61
2023/10/14 14:05:54;;;;;;;4.97;2.70;;;;;;;;;;4934737;29;20230;-60
2023/10/14 14:08:28;;;;;;;4.70;2.20;;;;;;;;;;4936097;29;20036;-61
2023/10/14 14:11:03;;;;;;;6.80;2.50;;;;;;;;;;4933898;29;20063;-60
2023/10/14 14:13:29;;;;;;;6.90;2.60;;;;;;;;;;4939344;29;20057;-59
2023/10/14 14:15:55;;;;;;;8.05;2.40;;;;;;;;;;4936426;29;20039;-59
2023/10/14 14:18:21;;;;;;;6.30;2.60;;;;;;;;;;4950545;29;20038;-60
2023/10/14 14:20:48;;;;;;;4.32;2.50;;;;;;;;;;4944281;29;20036;-60
2023/10/14 14:23:17;;;;;;;7.13;2.35;;;;;;;;;;4935360;29;20118;-60
2023/10/14 14:25:43;;;;;;;5.88;2.45;;;;;;;;;;4934372;29;20120;-61
2023/10/14 14:28:09;;;;;;;9.68;2.70;;;;;;;;;;4917851;29;20451;-61
2023/10/14 14:30:35;;;;;;;6.32;2.50;;;;;;;;;;4935100;29;20035;-60
2023/10/14 14:33:01;;;;;;;6.10;2.83;;;;;;;;;;4933684;29;20074;-60
2023/10/14 14:35:31;;;;;;;6.70;3.20;;;;;;;;;;4934724;29;20063;-60
2023/10/14 14:37:58;;;;;;;8.88;3.17;;;;;;;;;;4933567;29;20028;-60
2023/10/14 14:40:24;;;;;;;5.18;2.90;;;;;;;;;;4941047;29;20150;-60
2023/10/14 14:42:51;;;;;;;9.15;2.80;;;;;;;;;;4951225;29;20090;-60
2023/10/14 14:45:24;;;;;;;7.20;2.63;;;;;;;;;;4951240;29;20158;-60
2023/10/14 14:47:51;;;;;;;4.93;2.03;;;;;;;;;;4953216;29;20055;-60
2023/10/14 14:50:18;;;;;;;6.18;2.15;;;;;;;;;;4953900;29;20520;-60
2023/10/14 14:52:44;;;;;;;9.77;2.25;;;;;;;;;;4939140;29;20055;-60
2023/10/14 14:55:14;;;;;;;6.75;1.92;;;;;;;;;;4934601;29;20063;-56
2023/10/14 14:57:45;;;;;;;7.03;2.03;;;;;;;;;;4933576;29;20035;-61
2023/10/14 15:00:14;;;;;;;6.50;1.73;;;;;;;;;;4917390;29;20493;-59
2023/10/14 15:02:43;;;;;;;8.80;1.92;;;;;;;;;;4930729;29;20388;-59
2023/10/14 15:05:14;;;;;;;6.60;1.90;;;;;;;;;;4934980;29;20358;-56
2023/10/14 15:07:41;;;;;;;4.90;1.65;;;;;;;;;;4918675;29;20035;-60
2023/10/14 15:10:10;;;;;;;4.80;1.42;;;;;;;;;;4932653;29;20094;-59
2023/10/14 15:12:35;;;;;;;5.97;1.52;;;;;;;;;;4940320;29;20070;-59